Terminal Aerodrome Forecast
Issued by NWS Sioux Falls, SD

Home | Current Version | Previous Version | Graphics & Text | Print | Product List | Glossary Off
Versions: 1 2 3 4 5 6 7 8 9 10 11 12 13 14

000
FTUS43 KFSD 301724
TAFFSD
TAF
KFSD 301724Z 3018/0118 17012KT P6SM FEW250
     FM010200 16007KT P6SM FEW250
     FM010900 19010KT P6SM SCT050 BKN090
      TEMPO 0109/0111 P6SM -SHRA BKN050
     FM011300 23009KT P6SM SCT040 BKN200=

USA.gov is the U.S. government's official web portal to all federal, state and local government web resources and services.